Time;durP1;ratioP1;P1;durP2;ratioP2;P2;SDS_P1;SDS_P2;PMS_P1;PMS_P2;Temp;Humidity;BMP_temperature;BMP_pressure;BME280_temperature;BME280_humidity;BME280_pressure;Samples;Min_cycle;Max_cycle;Signal;HPM_P1;HPM_P2
2020/12/13 00:00:07;;;;;;;10.37;8.70;;;7.30;99.90;;;;;;4980590;28;20451;-91
2020/12/13 00:02:33;;;;;;;10.50;8.63;;;7.30;99.90;;;;;;5015783;28;20496;-90
2020/12/13 00:04:59;;;;;;;10.98;9.57;;;7.30;99.90;;;;;;5018400;28;20471;-91
2020/12/13 00:07:27;;;;;;;8.73;7.85;;;7.30;99.90;;;;;;5018777;28;20204;-91
2020/12/13 00:09:53;;;;;;;12.17;8.83;;;7.30;99.90;;;;;;5015958;28;20239;-91
2020/12/13 00:12:19;;;;;;;9.93;7.53;;;7.30;99.90;;;;;;5019908;28;20478;-90
2020/12/13 00:14:46;;;;;;;9.03;8.13;;;7.20;99.90;;;;;;5017243;28;20498;-91
2020/12/13 00:17:12;;;;;;;8.77;7.97;;;7.20;99.90;;;;;;5013865;28;20446;-91
2020/12/13 00:19:38;;;;;;;7.95;7.20;;;7.30;99.90;;;;;;5014220;28;20457;-90
2020/12/13 00:22:05;;;;;;;8.35;7.47;;;7.30;99.90;;;;;;5014521;28;20253;-91
2020/12/13 00:24:32;;;;;;;10.05;8.55;;;7.30;99.90;;;;;;5014797;28;20291;-91
2020/12/13 00:26:59;;;;;;;10.68;9.23;;;7.30;99.90;;;;;;5017352;28;20231;-90
2020/12/13 00:29:25;;;;;;;9.93;8.05;;;7.30;99.90;;;;;;5034134;28;20651;-90
2020/12/13 00:31:51;;;;;;;13.05;11.07;;;7.30;99.90;;;;;;5035969;28;20210;-91
2020/12/13 00:34:18;;;;;;;9.02;8.10;;;7.30;99.90;;;;;;5024630;28;20255;-90
2020/12/13 00:36:44;;;;;;;11.10;8.65;;;7.30;99.90;;;;;;5002792;28;20238;-89
2020/12/13 00:39:11;;;;;;;11.70;9.10;;;7.30;99.90;;;;;;5000758;28;20783;-91
2020/12/13 00:41:38;;;;;;;9.50;8.20;;;7.30;99.90;;;;;;5008165;28;20459;-93
2020/12/13 00:44:04;;;;;;;13.55;9.13;;;7.30;99.90;;;;;;5017948;28;20226;-92
2020/12/13 00:46:31;;;;;;;12.82;8.60;;;7.30;99.90;;;;;;5018558;28;20205;-92
2020/12/13 00:48:57;;;;;;;10.90;8.80;;;7.30;99.90;;;;;;5017551;28;20227;-90
2020/12/13 00:51:25;;;;;;;9.35;7.43;;;7.30;99.90;;;;;;4997853;28;20880;-91
2020/12/13 00:53:51;;;;;;;11.30;8.77;;;7.30;99.90;;;;;;4996444;28;20316;-93
2020/12/13 00:56:17;;;;;;;11.20;8.70;;;7.30;99.90;;;;;;5013892;28;20204;-90
2020/12/13 00:58:45;;;;;;;11.50;8.87;;;7.30;99.90;;;;;;5010092;28;20899;-90
2020/12/13 01:01:11;;;;;;;8.85;7.93;;;7.30;99.90;;;;;;5010973;28;20480;-91
2020/12/13 01:03:38;;;;;;;11.00;7.47;;;7.30;99.90;;;;;;5006040;28;20267;-89
2020/12/13 01:06:04;;;;;;;10.15;8.20;;;7.30;99.90;;;;;;5010890;28;20219;-89
2020/12/13 01:08:30;;;;;;;8.40;7.60;;;7.30;99.90;;;;;;5028725;28;20222;-88
2020/12/13 01:10:57;;;;;;;6.70;6.10;;;7.30;99.90;;;;;;5026979;28;20462;-89
2020/12/13 01:13:24;;;;;;;8.10;7.30;;;7.30;99.90;;;;;;5026768;28;20294;-88
2020/12/13 01:15:51;;;;;;;15.30;8.35;;;7.40;99.90;;;;;;5028972;28;20494;-89
2020/12/13 01:18:18;;;;;;;8.80;7.90;;;7.40;99.90;;;;;;5027278;28;20235;-89
2020/12/13 01:20:44;;;;;;;11.05;7.90;;;7.40;99.90;;;;;;5027875;28;20453;-88
2020/12/13 01:23:11;;;;;;;10.15;7.97;;;7.40;99.90;;;;;;5029067;28;20204;-90
2020/12/13 01:25:37;;;;;;;14.37;8.60;;;7.40;99.90;;;;;;5028866;28;20215;-90
2020/12/13 01:28:03;;;;;;;8.88;7.28;;;7.30;99.90;;;;;;5029899;28;20482;-90
2020/12/13 01:30:30;;;;;;;9.73;8.52;;;7.30;99.90;;;;;;5029052;28;20234;-88
2020/12/13 01:32:57;;;;;;;11.30;7.70;;;7.30;99.90;;;;;;5027529;28;20234;-88
2020/12/13 01:35:25;;;;;;;11.73;8.23;;;7.30;99.90;;;;;;5027830;28;20296;-88
2020/12/13 01:37:52;;;;;;;8.00;7.20;;;7.20;99.90;;;;;;5027801;28;20485;-89
2020/12/13 01:40:18;;;;;;;8.23;7.53;;;7.20;99.90;;;;;;5026397;28;20471;-89
2020/12/13 01:42:45;;;;;;;10.02;8.23;;;7.20;99.90;;;;;;5027240;28;20533;-89
2020/12/13 01:45:18;;;;;;;9.68;7.82;;;7.20;99.90;;;;;;5007361;28;20235;-88
2020/12/13 01:47:45;;;;;;;10.57;8.03;;;7.20;99.90;;;;;;5010210;28;20208;-88
2020/12/13 01:50:23;;;;;;;8.60;7.20;;;7.20;99.90;;;;;;5011740;28;20451;-88
2020/12/13 01:52:50;;;;;;;9.37;7.67;;;7.20;99.90;;;;;;5011970;28;20215;-89
2020/12/13 01:55:17;;;;;;;10.40;8.35;;;7.20;99.90;;;;;;5012522;28;20502;-88
2020/12/13 01:57:47;;;;;;;6.93;6.32;;;7.20;99.90;;;;;;5013079;28;20622;-88
2020/12/13 02:00:16;;;;;;;8.40;6.60;;;7.20;99.90;;;;;;5015562;28;20243;-88
2020/12/13 02:02:45;;;;;;;7.83;7.03;;;7.20;99.90;;;;;;5024505;28;20470;-89
2020/12/13 02:05:14;;;;;;;9.38;7.75;;;7.20;99.90;;;;;;5037123;28;20477;-89
2020/12/13 02:07:42;;;;;;;7.15;6.45;;;7.20;99.90;;;;;;5036831;28;20207;-89
2020/12/13 02:10:10;;;;;;;9.07;7.97;;;7.20;99.90;;;;;;5036177;28;20208;-89
2020/12/13 02:12:36;;;;;;;8.00;7.20;;;7.20;99.90;;;;;;5036099;28;20438;-88
2020/12/13 02:15:04;;;;;;;9.75;8.50;;;7.10;99.90;;;;;;5036643;28;20498;-89
2020/12/13 02:17:33;;;;;;;12.93;7.73;;;7.10;99.90;;;;;;5033945;28;20231;-87
2020/12/13 02:20:01;;;;;;;9.20;7.00;;;7.10;99.90;;;;;;5028849;28;20473;-88
2020/12/13 02:22:29;;;;;;;8.15;6.88;;;7.10;99.90;;;;;;5027722;28;20486;-89
2020/12/13 02:25:08;;;;;;;7.40;6.60;;;7.10;99.90;;;;;;5027505;28;20208;-88
2020/12/13 02:27:34;;;;;;;10.77;8.50;;;7.10;99.90;;;;;;5026898;28;20509;-87
2020/12/13 02:30:01;;;;;;;8.67;6.57;;;7.10;99.90;;;;;;5026746;28;20451;-87
2020/12/13 02:32:27;;;;;;;8.87;7.97;;;7.20;99.90;;;;;;5020113;28;20486;-90
2020/12/13 02:34:53;;;;;;;8.63;7.73;;;7.20;99.90;;;;;;5014306;28;21023;-89
2020/12/13 02:37:21;;;;;;;8.43;7.22;;;7.20;99.90;;;;;;5018598;28;20531;-89
2020/12/13 02:39:48;;;;;;;9.10;8.25;;;7.20;99.90;;;;;;5017745;28;20294;-91
2020/12/13 02:42:15;;;;;;;7.68;6.93;;;7.20;99.90;;;;;;5017531;28;20254;-89
2020/12/13 02:44:41;;;;;;;8.02;7.15;;;7.20;99.90;;;;;;5016367;28;20206;-89
2020/12/13 02:47:08;;;;;;;7.70;6.63;;;7.20;99.90;;;;;;5017049;28;20288;-89
2020/12/13 02:49:35;;;;;;;11.20;7.90;;;7.20;99.90;;;;;;5015566;28;20291;-89
2020/12/13 02:52:01;;;;;;;7.50;6.43;;;7.20;99.90;;;;;;5016577;28;20462;-88
2020/12/13 02:54:28;;;;;;;8.57;6.43;;;7.20;99.90;;;;;;5016602;28;20310;-89
2020/12/13 02:56:55;;;;;;;9.10;6.63;;;7.20;99.90;;;;;;5016712;28;20231;-89
2020/12/13 02:59:21;;;;;;;9.27;7.13;;;7.20;99.90;;;;;;5015989;28;20522;-89
2020/12/13 03:01:48;;;;;;;7.33;6.60;;;7.20;99.90;;;;;;5016083;28;20294;-89
2020/12/13 03:04:14;;;;;;;7.57;6.55;;;7.20;99.90;;;;;;5015312;28;20450;-89
2020/12/13 03:06:40;;;;;;;9.48;6.78;;;7.20;99.90;;;;;;5016042;28;20302;-88
2020/12/13 03:09:07;;;;;;;8.40;6.82;;;7.20;99.90;;;;;;5015223;28;20387;-89
2020/12/13 03:11:33;;;;;;;8.38;6.53;;;7.20;99.90;;;;;;5014569;28;20239;-90
2020/12/13 03:14:00;;;;;;;7.73;6.43;;;7.20;99.90;;;;;;5015766;28;20253;-89
2020/12/13 03:16:27;;;;;;;7.97;6.40;;;7.20;99.90;;;;;;5016027;28;20561;-91
2020/12/13 03:18:53;;;;;;;8.77;6.90;;;7.20;99.90;;;;;;5014912;28;20541;-89
2020/12/13 03:21:19;;;;;;;10.37;7.73;;;7.20;99.90;;;;;;5016282;28;20538;-90
2020/12/13 03:23:46;;;;;;;7.88;7.15;;;7.20;99.90;;;;;;5018382;28;21001;-88
2020/12/13 03:26:12;;;;;;;9.35;6.07;;;7.20;99.90;;;;;;5017934;28;20242;-90
2020/12/13 03:28:39;;;;;;;10.57;7.67;;;7.20;99.90;;;;;;5017714;28;20276;-89
2020/12/13 03:31:06;;;;;;;7.47;6.35;;;7.20;99.90;;;;;;5017743;28;20510;-90
2020/12/13 03:33:33;;;;;;;8.20;7.15;;;7.20;99.90;;;;;;5016219;28;20290;-89
2020/12/13 03:35:59;;;;;;;7.10;6.40;;;7.20;99.90;;;;;;5019044;28;20259;-89
2020/12/13 03:38:25;;;;;;;7.13;6.40;;;7.20;99.90;;;;;;5013846;28;20268;-89
2020/12/13 03:40:52;;;;;;;7.50;6.28;;;7.20;99.90;;;;;;4997636;28;20212;-88
2020/12/13 03:43:18;;;;;;;6.95;6.07;;;7.20;99.90;;;;;;4998293;28;20235;-89
2020/12/13 03:45:45;;;;;;;6.18;5.65;;;7.20;99.90;;;;;;4996030;28;20647;-90
2020/12/13 03:48:12;;;;;;;7.15;5.80;;;7.20;99.90;;;;;;4994902;28;20239;-91
2020/12/13 03:50:38;;;;;;;7.60;6.30;;;7.20;99.90;;;;;;4996558;28;20291;-90
2020/12/13 03:53:09;;;;;;;7.93;7.03;;;7.20;99.90;;;;;;4996256;28;20668;-91
2020/12/13 03:55:36;;;;;;;6.20;5.60;;;7.20;99.90;;;;;;4995261;28;20232;-91
2020/12/13 03:58:02;;;;;;;9.13;6.87;;;7.20;99.90;;;;;;4995105;28;20510;-90
2020/12/13 04:00:29;;;;;;;7.93;6.20;;;7.20;99.90;;;;;;4995039;28;20526;-91
2020/12/13 04:02:57;;;;;;;7.53;6.75;;;7.20;99.90;;;;;;4995711;28;20460;-90
2020/12/13 04:05:25;;;;;;;7.60;5.72;;;7.20;99.90;;;;;;5013298;28;20239;-90
2020/12/13 04:07:52;;;;;;;6.32;5.70;;;7.20;99.90;;;;;;5015105;28;20235;-91
2020/12/13 04:10:19;;;;;;;6.65;5.95;;;7.20;99.90;;;;;;5014384;28;20207;-90
2020/12/13 04:12:46;;;;;;;6.23;5.60;;;7.20;99.90;;;;;;5014232;28;20302;-91
2020/12/13 04:15:13;;;;;;;6.90;5.47;;;7.20;99.90;;;;;;5013938;28;20548;-90
2020/12/13 04:17:39;;;;;;;5.83;5.23;;;7.20;99.90;;;;;;5013278;28;20497;-89
2020/12/13 04:20:08;;;;;;;6.10;5.50;;;7.20;99.90;;;;;;5014032;28;20988;-91
2020/12/13 04:22:35;;;;;;;5.73;4.77;;;7.20;99.90;;;;;;5013818;28;20539;-89
2020/12/13 04:25:01;;;;;;;7.82;6.32;;;7.20;99.90;;;;;;5014031;28;20883;-90
2020/12/13 04:27:28;;;;;;;6.20;4.40;;;7.20;99.90;;;;;;5013865;28;20294;-91
2020/12/13 04:29:54;;;;;;;5.83;5.23;;;7.20;99.90;;;;;;5014061;28;20538;-91
2020/12/13 04:32:21;;;;;;;5.37;4.87;;;7.20;99.90;;;;;;5013314;28;20487;-92
2020/12/13 04:34:48;;;;;;;5.40;4.82;;;7.20;99.90;;;;;;5013915;28;20533;-91
2020/12/13 04:37:14;;;;;;;7.90;5.13;;;7.20;99.90;;;;;;5014951;28;20238;-90
2020/12/13 04:39:42;;;;;;;5.23;4.60;;;7.30;99.90;;;;;;5022730;28;20481;-92
2020/12/13 04:42:08;;;;;;;6.50;5.17;;;7.20;99.90;;;;;;5012950;28;20998;-92
2020/12/13 04:44:36;;;;;;;6.57;5.90;;;7.20;99.90;;;;;;5013624;28;20446;-90
2020/12/13 04:47:05;;;;;;;6.43;5.60;;;7.20;99.90;;;;;;5013825;28;20537;-90
2020/12/13 04:49:32;;;;;;;13.90;8.53;;;7.30;99.90;;;;;;5012948;28;20482;-89
2020/12/13 04:51:59;;;;;;;18.20;10.53;;;7.20;99.90;;;;;;5013729;28;20897;-91
2020/12/13 04:54:29;;;;;;;32.43;18.40;;;7.30;99.90;;;;;;5013495;28;20921;-88
2020/12/13 04:56:59;;;;;;;23.67;13.47;;;7.30;99.90;;;;;;5013418;28;20554;-89
2020/12/13 04:59:26;;;;;;;31.03;18.17;;;7.30;99.90;;;;;;5013264;28;20573;-88
2020/12/13 05:01:54;;;;;;;25.90;15.47;;;7.30;99.90;;;;;;5014253;28;20455;-90
2020/12/13 05:04:20;;;;;;;16.77;11.07;;;7.30;99.90;;;;;;5010986;28;20490;-90
2020/12/13 05:06:48;;;;;;;10.93;9.80;;;7.30;99.90;;;;;;5013737;28;20525;-89
2020/12/13 05:09:15;;;;;;;14.80;9.63;;;7.30;99.90;;;;;;5013539;28;20508;-89
2020/12/13 05:11:43;;;;;;;7.37;5.97;;;7.30;99.90;;;;;;5013710;28;20458;-90
2020/12/13 05:14:11;;;;;;;7.87;6.20;;;7.30;99.90;;;;;;5013154;28;20459;-90
2020/12/13 05:16:37;;;;;;;6.77;6.10;;;7.30;99.90;;;;;;5013426;28;20450;-89
2020/12/13 05:19:05;;;;;;;9.43;5.43;;;7.30;99.90;;;;;;5012129;28;20553;-89
2020/12/13 05:21:32;;;;;;;5.77;4.33;;;7.30;99.90;;;;;;5013144;28;20207;-89
2020/12/13 05:24:00;;;;;;;5.45;4.95;;;7.30;99.90;;;;;;5013267;28;20446;-88
2020/12/13 05:26:27;;;;;;;5.93;5.00;;;7.30;99.90;;;;;;5013063;28;20211;-89
2020/12/13 05:28:53;;;;;;;5.60;5.10;;;7.30;99.90;;;;;;5012797;28;20250;-90
2020/12/13 05:31:24;;;;;;;6.57;4.80;;;7.30;99.90;;;;;;5013093;28;20223;-88
2020/12/13 05:33:53;;;;;;;5.73;5.23;;;7.30;99.90;;;;;;5011883;28;20487;-90
2020/12/13 05:36:20;;;;;;;5.60;5.00;;;7.30;99.90;;;;;;5016303;28;20837;-90
2020/12/13 05:38:47;;;;;;;6.93;5.70;;;7.30;99.90;;;;;;5016234;28;20621;-89
2020/12/13 05:41:15;;;;;;;6.57;5.20;;;7.30;99.90;;;;;;5017081;28;20458;-88
2020/12/13 05:43:48;;;;;;;8.77;6.13;;;7.30;99.90;;;;;;5017105;28;20481;-90
2020/12/13 05:46:40;;;;;;;6.00;5.33;;;7.30;99.90;;;;;;5017051;28;20488;-91
2020/12/13 05:49:30;;;;;;;6.40;4.90;;;7.30;99.90;;;;;;5015796;28;20450;-90
2020/12/13 05:51:58;;;;;;;7.77;5.80;;;7.30;99.90;;;;;;5017249;28;20458;-92
2020/12/13 05:54:26;;;;;;;7.35;5.35;;;7.30;99.90;;;;;;5017061;28;20544;-92
2020/12/13 05:56:57;;;;;;;6.60;5.00;;;7.30;99.90;;;;;;5017278;28;20290;-91
2020/12/13 05:59:24;;;;;;;6.63;5.37;;;7.20;99.90;;;;;;5017079;28;20482;-92
2020/12/13 06:01:54;;;;;;;6.67;6.00;;;7.20;99.90;;;;;;5017399;28;20477;-91
2020/12/13 06:04:30;;;;;;;6.50;5.90;;;7.20;99.90;;;;;;5016560;28;20461;-89
2020/12/13 06:06:58;;;;;;;5.35;4.85;;;7.20;99.90;;;;;;4982228;28;20459;-89
2020/12/13 06:09:32;;;;;;;7.63;5.60;;;7.20;99.90;;;;;;5000807;28;20227;-90
2020/12/13 06:12:02;;;;;;;11.03;6.40;;;7.30;99.90;;;;;;5001604;28;20434;-89
2020/12/13 06:14:29;;;;;;;6.73;5.90;;;7.30;99.90;;;;;;5001125;28;20428;-88
2020/12/13 06:16:58;;;;;;;7.80;6.17;;;7.30;99.90;;;;;;4979210;28;20444;-88
2020/12/13 06:19:26;;;;;;;5.97;5.37;;;7.30;99.90;;;;;;4978704;28;20546;-89
2020/12/13 06:21:56;;;;;;;6.37;5.57;;;7.30;99.90;;;;;;4978718;28;20535;-88
2020/12/13 06:24:23;;;;;;;6.78;6.07;;;7.30;99.90;;;;;;4977715;28;20547;-87
2020/12/13 06:26:51;;;;;;;7.87;5.87;;;7.30;99.90;;;;;;4977692;28;20208;-89
2020/12/13 06:29:20;;;;;;;7.60;6.35;;;7.30;99.90;;;;;;4977914;28;20559;-90
2020/12/13 06:31:47;;;;;;;5.57;5.07;;;7.30;99.90;;;;;;4977228;28;20229;-85
2020/12/13 06:34:13;;;;;;;5.85;5.35;;;7.30;99.90;;;;;;4973518;28;20299;-85
2020/12/13 06:36:41;;;;;;;7.63;5.63;;;7.30;99.90;;;;;;5013409;28;20766;-85
2020/12/13 06:39:12;;;;;;;6.97;6.00;;;7.30;99.90;;;;;;5023300;28;20485;-84
2020/12/13 06:41:41;;;;;;;7.50;5.95;;;7.30;99.90;;;;;;5033395;28;20207;-87
2020/12/13 06:44:08;;;;;;;6.22;5.63;;;7.30;99.90;;;;;;5024536;28;20294;-86
2020/12/13 06:46:40;;;;;;;6.57;5.97;;;7.30;99.90;;;;;;5001915;28;20246;-85
2020/12/13 06:49:07;;;;;;;6.90;5.57;;;7.30;99.90;;;;;;5001309;28;20451;-86
2020/12/13 06:51:36;;;;;;;9.40;5.93;;;7.30;99.90;;;;;;4996311;28;20479;-85
2020/12/13 06:54:06;;;;;;;8.70;6.30;;;7.30;99.90;;;;;;4995949;28;20475;-85
2020/12/13 06:56:33;;;;;;;8.23;6.40;;;7.30;99.90;;;;;;4995656;28;20244;-85
2020/12/13 06:59:01;;;;;;;9.30;5.95;;;7.30;99.90;;;;;;4995667;28;20482;-85
2020/12/13 07:01:29;;;;;;;7.38;4.72;;;7.40;99.90;;;;;;4995691;28;20240;-85
2020/12/13 07:03:58;;;;;;;7.03;5.72;;;7.40;99.90;;;;;;4994550;28;20664;-85
2020/12/13 07:06:42;;;;;;;11.70;6.40;;;7.40;99.90;;;;;;5005938;28;20215;-86
2020/12/13 07:09:11;;;;;;;7.80;6.33;;;7.40;99.90;;;;;;5015015;28;20438;-85
2020/12/13 07:11:40;;;;;;;7.63;5.88;;;7.40;99.90;;;;;;5016834;28;20447;-93
2020/12/13 07:14:09;;;;;;;8.35;6.22;;;7.40;99.90;;;;;;5025120;28;20207;-94
2020/12/13 07:16:42;;;;;;;10.48;6.13;;;7.40;99.90;;;;;;5025270;28;20683;-94
2020/12/13 07:19:11;;;;;;;8.13;5.67;;;7.50;99.90;;;;;;5023805;28;20203;-92
2020/12/13 07:21:39;;;;;;;7.30;6.00;;;7.50;99.90;;;;;;5017220;28;20474;-88
2020/12/13 07:24:06;;;;;;;6.05;5.43;;;7.50;99.90;;;;;;5015209;28;20234;-87
2020/12/13 07:26:35;;;;;;;7.13;5.30;;;7.40;99.90;;;;;;5015016;28;20200;-87
2020/12/13 07:29:04;;;;;;;7.43;5.70;;;7.50;99.90;;;;;;5014817;28;20936;-88
2020/12/13 07:31:35;;;;;;;8.15;6.13;;;7.50;99.90;;;;;;5014987;28;20208;-88
2020/12/13 07:34:03;;;;;;;8.15;5.65;;;7.50;99.90;;;;;;5013532;28;20214;-87
2020/12/13 07:36:29;;;;;;;6.43;5.82;;;7.50;99.90;;;;;;5014805;28;20235;-88
2020/12/13 07:38:56;;;;;;;6.57;5.67;;;7.50;99.90;;;;;;5014928;28;20249;-88
2020/12/13 07:41:27;;;;;;;7.82;5.70;;;7.50;99.90;;;;;;5011861;28;20549;-89
2020/12/13 07:44:00;;;;;;;6.03;5.17;;;7.50;99.90;;;;;;5015470;28;20225;-91
2020/12/13 07:46:28;;;;;;;8.95;6.65;;;7.50;99.90;;;;;;5014052;28;20584;-86
2020/12/13 07:49:06;;;;;;;6.65;5.55;;;7.50;99.90;;;;;;5013514;28;20275;-88
2020/12/13 07:51:34;;;;;;;6.73;6.00;;;7.60;99.90;;;;;;5014581;28;20306;-88
2020/12/13 07:54:11;;;;;;;8.23;6.00;;;7.60;99.90;;;;;;5014548;28;20459;-88
2020/12/13 07:56:38;;;;;;;8.70;6.50;;;7.70;99.90;;;;;;5014487;28;20906;-92
2020/12/13 07:59:12;;;;;;;8.17;6.57;;;7.70;99.90;;;;;;5013620;28;20871;-87
2020/12/13 08:01:40;;;;;;;6.40;5.27;;;7.60;99.90;;;;;;5015152;28;20540;-88
2020/12/13 08:04:07;;;;;;;6.28;5.35;;;7.70;99.90;;;;;;5016151;28;20549;-88
2020/12/13 08:06:34;;;;;;;7.50;5.70;;;7.60;99.90;;;;;;5020016;28;20653;-89
2020/12/13 08:09:06;;;;;;;6.73;5.53;;;7.70;99.90;;;;;;5015507;28;20455;-89
2020/12/13 08:11:33;;;;;;;7.25;4.78;;;7.60;99.90;;;;;;5014489;28;20443;-89
2020/12/13 08:14:00;;;;;;;8.73;5.60;;;7.80;99.90;;;;;;5015208;28;20200;-89
2020/12/13 08:16:27;;;;;;;7.30;5.80;;;8.00;99.90;;;;;;5015295;28;20529;-89
2020/12/13 08:18:59;;;;;;;7.50;6.00;;;8.10;99.90;;;;;;5015310;28;20540;-90
2020/12/13 08:21:32;;;;;;;4.87;3.70;;;8.20;99.90;;;;;;5016381;28;20450;-90
2020/12/13 08:24:03;;;;;;;5.10;3.90;;;8.30;99.90;;;;;;5015270;28;20458;-89
2020/12/13 08:26:30;;;;;;;3.97;3.57;;;8.20;99.90;;;;;;5015647;28;20478;-90
2020/12/13 08:29:00;;;;;;;5.30;4.50;;;8.40;99.90;;;;;;5015025;28;20451;-89
2020/12/13 08:31:30;;;;;;;4.53;3.83;;;8.30;99.90;;;;;;5014426;28;20512;-89
2020/12/13 08:34:01;;;;;;;3.53;3.10;;;8.30;99.90;;;;;;4998034;28;20463;-89
2020/12/13 08:36:30;;;;;;;6.17;3.23;;;8.30;99.90;;;;;;4995439;28;20535;-88
2020/12/13 08:39:01;;;;;;;2.33;2.13;;;8.30;99.90;;;;;;4994689;28;20479;-87
2020/12/13 08:41:28;;;;;;;2.92;2.50;;;8.20;99.90;;;;;;4994276;28;20526;-86
2020/12/13 08:43:55;;;;;;;3.80;2.90;;;8.20;99.90;;;;;;4994354;28;20243;-89
2020/12/13 08:46:41;;;;;;;3.07;2.80;;;8.20;99.90;;;;;;4993042;28;20463;-90
2020/12/13 08:49:08;;;;;;;4.20;3.70;;;8.20;99.90;;;;;;5012780;28;20512;-92
2020/12/13 08:51:34;;;;;;;3.60;3.10;;;8.20;99.90;;;;;;5014173;28;20483;-84
2020/12/13 08:54:03;;;;;;;5.50;4.13;;;8.30;99.90;;;;;;5013543;28;20442;-86
2020/12/13 08:56:35;;;;;;;5.30;4.07;;;8.30;99.90;;;;;;5013532;28;20588;-87
2020/12/13 08:59:03;;;;;;;7.80;5.33;;;8.40;99.90;;;;;;5013510;28;20510;-86
2020/12/13 09:01:32;;;;;;;9.17;5.13;;;8.30;99.90;;;;;;5013080;28;20546;-88
2020/12/13 09:03:59;;;;;;;4.87;3.90;;;8.40;99.90;;;;;;5012531;28;20463;-85
2020/12/13 09:06:27;;;;;;;4.20;3.63;;;8.50;99.90;;;;;;5011850;28;20502;-85
2020/12/13 09:08:54;;;;;;;6.10;4.67;;;8.40;99.90;;;;;;5013530;28;20545;-86
2020/12/13 09:11:31;;;;;;;5.33;4.57;;;8.40;99.90;;;;;;5013387;28;20866;-85
2020/12/13 09:13:57;;;;;;;6.30;5.23;;;8.40;99.90;;;;;;5013200;28;21029;-84
2020/12/13 09:16:28;;;;;;;8.83;6.17;;;8.30;99.90;;;;;;5013045;28;20498;-85
2020/12/13 09:19:06;;;;;;;5.23;4.43;;;8.30;99.90;;;;;;5011856;28;20539;-85
2020/12/13 09:21:49;;;;;;;5.90;5.10;;;8.30;99.90;;;;;;5012855;28;20454;-85
2020/12/13 09:24:16;;;;;;;7.80;4.30;;;8.40;99.90;;;;;;5013254;28;20460;-84
2020/12/13 09:26:59;;;;;;;4.40;3.53;;;8.40;99.90;;;;;;5012978;28;20462;-84
2020/12/13 09:29:26;;;;;;;4.20;3.73;;;8.40;99.90;;;;;;5012930;28;20540;-83
2020/12/13 09:31:52;;;;;;;4.70;4.30;;;8.40;99.90;;;;;;5012944;28;20459;-84
2020/12/13 09:34:20;;;;;;;4.17;3.50;;;8.40;99.90;;;;;;5011709;28;20831;-85
2020/12/13 09:36:47;;;;;;;7.20;5.53;;;8.40;99.90;;;;;;5011690;28;20512;-84
2020/12/13 09:39:13;;;;;;;5.77;5.30;;;8.50;99.90;;;;;;5012682;28;20629;-84
2020/12/13 09:41:39;;;;;;;4.97;4.40;;;8.50;99.90;;;;;;5012760;28;20537;-86
2020/12/13 09:44:06;;;;;;;6.33;5.13;;;8.40;99.90;;;;;;5013286;28;20458;-87
2020/12/13 09:46:32;;;;;;;5.47;4.30;;;8.40;99.90;;;;;;5013133;28;20550;-85
2020/12/13 09:48:59;;;;;;;6.17;4.30;;;8.40;99.90;;;;;;5012010;28;20545;-85
2020/12/13 09:51:26;;;;;;;4.17;3.80;;;8.50;99.90;;;;;;5012771;28;20451;-85
2020/12/13 09:53:52;;;;;;;7.37;4.40;;;8.40;99.90;;;;;;5012702;28;20894;-85
2020/12/13 09:56:19;;;;;;;6.40;5.60;;;8.40;99.90;;;;;;5012680;28;21101;-84
2020/12/13 09:58:46;;;;;;;6.00;4.43;;;8.60;99.90;;;;;;5012795;28;20570;-83
2020/12/13 10:01:14;;;;;;;5.93;4.67;;;8.60;99.90;;;;;;5012661;28;20557;-85
2020/12/13 10:03:43;;;;;;;6.00;5.23;;;8.70;99.90;;;;;;5011604;28;20481;-84
2020/12/13 10:09:07;;;;;;;5.10;4.70;;;8.80;99.90;;;;;;4975127;28;20797;-84
2020/12/13 10:11:35;;;;;;;4.83;4.03;;;8.70;99.90;;;;;;5012627;28;20509;-87
2020/12/13 10:14:01;;;;;;;4.83;3.93;;;8.80;99.90;;;;;;5012862;28;20976;-85
2020/12/13 10:16:28;;;;;;;10.17;5.50;;;8.80;99.90;;;;;;5012652;28;20581;-85
2020/12/13 10:18:55;;;;;;;4.40;4.00;;;8.90;99.90;;;;;;5011231;28;20450;-84
2020/12/13 10:21:23;;;;;;;5.17;4.67;;;9.00;99.90;;;;;;5013752;28;20561;-87
2020/12/13 10:23:49;;;;;;;4.83;3.70;;;9.00;99.90;;;;;;5016111;28;20545;-84
2020/12/13 10:26:16;;;;;;;5.30;4.20;;;8.80;99.90;;;;;;5016233;28;20927;-84
2020/12/13 10:28:43;;;;;;;5.33;3.90;;;9.00;99.90;;;;;;5016099;28;20508;-85
2020/12/13 10:31:10;;;;;;;5.30;4.37;;;9.00;99.90;;;;;;5016109;28;20449;-84
2020/12/13 10:33:43;;;;;;;5.60;5.10;;;8.80;99.90;;;;;;5014686;28;20451;-85
2020/12/13 10:36:11;;;;;;;7.13;5.73;;;8.90;99.90;;;;;;5014576;28;20548;-85
2020/12/13 10:38:37;;;;;;;5.87;4.13;;;8.90;99.90;;;;;;5016051;28;21030;-82
2020/12/13 10:41:05;;;;;;;6.80;3.83;;;8.90;99.90;;;;;;5016106;28;20482;-90
2020/12/13 10:43:33;;;;;;;5.80;4.70;;;8.70;99.90;;;;;;5015959;28;20458;-82
2020/12/13 10:46:03;;;;;;;4.87;4.17;;;8.80;99.90;;;;;;5016040;28;20553;-88
2020/12/13 10:48:29;;;;;;;5.40;4.40;;;9.10;99.90;;;;;;5012089;28;20818;-82
2020/12/13 10:50:56;;;;;;;4.60;4.17;;;9.10;99.90;;;;;;5015398;28;20446;-83
2020/12/13 10:53:23;;;;;;;5.60;3.40;;;9.30;99.90;;;;;;5015908;28;20550;-79
2020/12/13 10:55:49;;;;;;;4.20;3.77;;;9.20;99.90;;;;;;5015543;28;20541;-86
2020/12/13 10:58:16;;;;;;;4.63;3.60;;;9.10;99.90;;;;;;5016142;28;20573;-90
2020/12/13 11:00:43;;;;;;;4.80;3.97;;;9.20;99.90;;;;;;5013389;28;20455;-82
2020/12/13 11:03:10;;;;;;;3.50;3.20;;;9.40;99.90;;;;;;5014775;28;20474;-84
2020/12/13 11:05:37;;;;;;;3.47;3.17;;;9.40;99.90;;;;;;5018598;28;20530;-82
2020/12/13 11:08:03;;;;;;;3.63;3.07;;;9.40;99.90;;;;;;5023715;28;20506;-79
2020/12/13 11:10:30;;;;;;;3.80;3.10;;;9.40;99.90;;;;;;5022359;28;20509;-80
2020/12/13 11:12:56;;;;;;;4.93;3.13;;;9.50;99.90;;;;;;5012958;28;20455;-80
2020/12/13 11:15:22;;;;;;;4.80;3.50;;;9.40;99.90;;;;;;5015919;28;20490;-82
2020/12/13 11:17:50;;;;;;;4.60;3.33;;;9.50;99.90;;;;;;5014249;28;20453;-79
2020/12/13 11:20:16;;;;;;;12.00;8.13;;;9.50;99.90;;;;;;5015024;28;20438;-82
2020/12/13 11:22:42;;;;;;;3.47;3.10;;;9.40;99.90;;;;;;5015004;28;20474;-80
2020/12/13 11:25:09;;;;;;;4.13;3.80;;;9.50;99.90;;;;;;5011946;28;20439;-81
2020/12/13 11:27:35;;;;;;;3.57;2.70;;;9.40;99.90;;;;;;5015315;28;20542;-80
2020/12/13 11:30:04;;;;;;;3.10;2.60;;;9.50;99.90;;;;;;5015684;28;20458;-82
2020/12/13 11:32:30;;;;;;;3.97;3.00;;;9.50;99.90;;;;;;5018828;28;20504;-83
2020/12/13 11:34:58;;;;;;;4.90;3.07;;;9.70;99.90;;;;;;5014822;28;20834;-84
2020/12/13 11:37:24;;;;;;;5.83;2.77;;;10.00;99.90;;;;;;5012783;28;20840;-85
2020/12/13 11:39:51;;;;;;;3.03;2.57;;;10.00;99.90;;;;;;5015298;28;20557;-84
2020/12/13 11:42:19;;;;;;;2.93;2.27;;;9.90;99.90;;;;;;5011691;28;20455;-83
2020/12/13 11:44:45;;;;;;;3.07;2.67;;;10.00;99.90;;;;;;5014879;28;20451;-85
2020/12/13 11:47:12;;;;;;;2.97;2.53;;;10.00;99.90;;;;;;5015243;28;20541;-81
2020/12/13 11:49:38;;;;;;;6.30;2.63;;;9.80;99.90;;;;;;5011576;28;20820;-84
2020/12/13 11:52:05;;;;;;;4.60;3.53;;;9.80;99.90;;;;;;5014733;28;20457;-82
2020/12/13 11:54:32;;;;;;;7.77;3.77;;;9.80;99.90;;;;;;5014694;28;20453;-79
2020/12/13 11:56:58;;;;;;;5.60;2.17;;;9.80;99.90;;;;;;5014550;28;20500;-80
2020/12/13 11:59:28;;;;;;;5.53;2.13;;;9.70;99.90;;;;;;5014157;28;20538;-81
2020/12/13 12:01:54;;;;;;;4.90;3.30;;;9.30;99.90;;;;;;5014687;28;20450;-84
2020/12/13 12:04:21;;;;;;;7.60;6.90;;;9.40;99.90;;;;;;5005248;28;20546;-79
2020/12/13 12:06:47;;;;;;;3.87;3.57;;;9.20;99.90;;;;;;4994709;28;20451;-77
2020/12/13 12:09:15;;;;;;;3.97;3.27;;;9.10;99.90;;;;;;4994527;28;20618;-79
2020/12/13 12:11:42;;;;;;;5.23;3.67;;;9.10;99.90;;;;;;4991797;28;20879;-77
2020/12/13 12:14:10;;;;;;;3.00;2.80;;;9.00;99.90;;;;;;4994621;28;20526;-79
2020/12/13 12:16:38;;;;;;;4.33;3.83;;;9.40;99.90;;;;;;4994288;28;20605;-81
2020/12/13 12:19:05;;;;;;;5.80;4.13;;;9.30;99.90;;;;;;4992625;28;20475;-80
2020/12/13 12:21:34;;;;;;;8.70;7.80;;;9.20;99.90;;;;;;4994431;28;20959;-80
2020/12/13 12:24:02;;;;;;;6.80;5.20;;;9.30;99.90;;;;;;4994313;28;20451;-81
2020/12/13 12:26:30;;;;;;;9.90;6.40;;;9.10;99.90;;;;;;4994311;28;20939;-80
2020/12/13 12:28:58;;;;;;;6.43;4.30;;;9.20;99.90;;;;;;4994116;28;20440;-81
2020/12/13 12:31:24;;;;;;;2.90;2.33;;;9.10;99.90;;;;;;4989365;28;20455;-82
2020/12/13 12:33:50;;;;;;;5.03;2.33;;;9.20;99.90;;;;;;4996034;28;20546;-82
2020/12/13 12:36:18;;;;;;;3.80;3.47;;;9.30;99.90;;;;;;5013452;28;20513;-81
2020/12/13 12:38:45;;;;;;;24.07;14.43;;;9.20;99.90;;;;;;5013614;28;20459;-79
2020/12/13 12:41:13;;;;;;;5.10;3.90;;;9.10;99.90;;;;;;5013489;28;20457;-79
2020/12/13 12:43:40;;;;;;;3.13;2.03;;;9.20;99.90;;;;;;5013457;28;20461;-78
2020/12/13 12:46:07;;;;;;;3.03;2.77;;;9.20;99.90;;;;;;5013517;28;20461;-78
2020/12/13 12:48:33;;;;;;;4.63;2.67;;;9.00;99.90;;;;;;5010599;28;20947;-80
2020/12/13 12:51:02;;;;;;;3.83;3.00;;;9.20;99.90;;;;;;5013822;28;20541;-79
2020/12/13 12:53:28;;;;;;;6.00;2.97;;;9.30;99.90;;;;;;5013534;28;20470;-79
2020/12/13 12:55:55;;;;;;;7.90;2.90;;;9.10;99.90;;;;;;5013745;28;20533;-78
2020/12/13 12:58:22;;;;;;;7.33;2.50;;;9.00;99.90;;;;;;5013160;28;20484;-79
2020/12/13 13:00:54;;;;;;;3.33;2.93;;;9.10;99.90;;;;;;5013171;28;20458;-79